Time;durP1;ratioP1;P1;durP2;ratioP2;P2;SDS_P1;SDS_P2;PMS_P1;PMS_P2;Temp;Humidity;BMP_temperature;BMP_pressure;BME280_temperature;BME280_humidity;BME280_pressure;Samples;Min_cycle;Max_cycle;Signal;HPM_P1;HPM_P2
2021/04/24 00:00:39;;;;;;;17.48;9.75;;;;;;;;;;5133842;28;20284;-77
2021/04/24 00:03:08;;;;;;;16.83;11.13;;;;;;;;;;5133924;28;20203;-77
2021/04/24 00:05:41;;;;;;;19.55;10.60;;;;;;;;;;5133528;27;20185;-76
2021/04/24 00:08:08;;;;;;;15.70;10.10;;;;;;;;;;5133498;28;20194;-77
2021/04/24 00:10:35;;;;;;;16.95;10.45;;;;;;;;;;5133841;28;20182;-76
2021/04/24 00:13:02;;;;;;;20.15;10.43;;;;;;;;;;5132164;28;20295;-76
2021/04/24 00:15:29;;;;;;;16.13;10.13;;;;;;;;;;5120154;27;20185;-76
2021/04/24 00:17:55;;;;;;;15.90;9.85;;;;;;;;;;5122112;28;20198;-74
2021/04/24 00:20:21;;;;;;;17.25;10.50;;;;;;;;;;5133634;28;20198;-76
2021/04/24 00:22:48;;;;;;;19.98;10.60;;;;;;;;;;5126185;28;20214;-75
2021/04/24 00:25:14;;;;;;;16.77;10.20;;;;;;;;;;5126804;28;20607;-76
2021/04/24 00:27:40;;;;;;;16.88;11.15;;;;;;;;;;5127295;28;20190;-76
2021/04/24 00:30:10;;;;;;;17.10;9.60;;;;;;;;;;5126303;28;20218;-76
2021/04/24 00:32:38;;;;;;;16.58;9.55;;;;;;;;;;5120739;28;20218;-75
2021/04/24 00:35:04;;;;;;;16.48;10.10;;;;;;;;;;5133472;28;20182;-76
2021/04/24 00:37:30;;;;;;;17.55;10.10;;;;;;;;;;5126040;28;20648;-77
2021/04/24 00:39:56;;;;;;;21.97;9.80;;;;;;;;;;5127251;28;20236;-75
2021/04/24 00:42:22;;;;;;;15.82;8.82;;;;;;;;;;5132473;28;20419;-77
2021/04/24 00:44:53;;;;;;;16.48;9.32;;;;;;;;;;5128174;28;20177;-77
2021/04/24 00:47:23;;;;;;;15.50;9.43;;;;;;;;;;5133655;28;20194;-75
2021/04/24 00:49:49;;;;;;;17.88;9.15;;;;;;;;;;5114014;28;20534;-77
2021/04/24 00:52:15;;;;;;;14.30;9.65;;;;;;;;;;5123749;27;20247;-77
2021/04/24 00:54:41;;;;;;;16.75;9.70;;;;;;;;;;5128450;27;20175;-76
2021/04/24 00:57:07;;;;;;;15.73;8.67;;;;;;;;;;5118649;27;20247;-77
2021/04/24 00:59:34;;;;;;;18.77;9.60;;;;;;;;;;5126824;27;20521;-77
2021/04/24 01:02:01;;;;;;;15.50;9.68;;;;;;;;;;5129341;27;20209;-76
2021/04/24 01:04:27;;;;;;;21.63;9.38;;;;;;;;;;5121169;27;20211;-76
2021/04/24 01:06:53;;;;;;;16.90;9.30;;;;;;;;;;5118966;27;20248;-76
2021/04/24 01:09:19;;;;;;;16.10;9.10;;;;;;;;;;5115759;28;20399;-76
2021/04/24 01:11:45;;;;;;;18.90;9.55;;;;;;;;;;5114704;28;20754;-77
2021/04/24 01:14:11;;;;;;;14.80;8.60;;;;;;;;;;5129914;27;20178;-76
2021/04/24 01:16:37;;;;;;;17.47;8.67;;;;;;;;;;5115898;27;20247;-76
2021/04/24 01:19:04;;;;;;;18.27;8.98;;;;;;;;;;5116966;27;20490;-76
2021/04/24 01:21:30;;;;;;;15.10;9.15;;;;;;;;;;5136869;27;20253;-76
2021/04/24 01:23:56;;;;;;;13.80;9.48;;;;;;;;;;5126160;27;20187;-76
2021/04/24 01:26:22;;;;;;;13.35;8.48;;;;;;;;;;5114567;28;20243;-76
2021/04/24 01:28:48;;;;;;;14.43;9.15;;;;;;;;;;5117250;27;20167;-76
2021/04/24 01:31:15;;;;;;;13.13;9.15;;;;;;;;;;5128010;27;20640;-75
2021/04/24 01:33:41;;;;;;;17.25;10.25;;;;;;;;;;5115860;28;20224;-77
2021/04/24 01:36:07;;;;;;;17.63;9.57;;;;;;;;;;5115659;28;20217;-76
2021/04/24 01:38:33;;;;;;;19.07;9.37;;;;;;;;;;5131128;27;20193;-76
2021/04/24 01:41:00;;;;;;;13.18;8.90;;;;;;;;;;5130702;27;20430;-76
2021/04/24 01:43:26;;;;;;;16.42;9.48;;;;;;;;;;5118593;27;20220;-76
2021/04/24 01:45:52;;;;;;;21.23;11.13;;;;;;;;;;5123813;27;20171;-77
2021/04/24 01:48:18;;;;;;;14.98;9.30;;;;;;;;;;5116554;27;20201;-76
2021/04/24 01:50:45;;;;;;;13.35;8.40;;;;;;;;;;5136141;27;20169;-77
2021/04/24 01:53:19;;;;;;;16.08;9.55;;;;;;;;;;5127544;27;20182;-74
2021/04/24 01:55:45;;;;;;;21.30;10.98;;;;;;;;;;5118044;27;20181;-76
2021/04/24 01:58:12;;;;;;;16.80;9.25;;;;;;;;;;5115017;27;20222;-76
2021/04/24 02:00:40;;;;;;;13.35;8.25;;;;;;;;;;5120931;27;20712;-76
2021/04/24 02:03:07;;;;;;;16.92;9.18;;;;;;;;;;5130304;27;20562;-77
2021/04/24 02:05:33;;;;;;;19.02;9.77;;;;;;;;;;5115297;28;20190;-77
2021/04/24 02:08:01;;;;;;;19.38;10.07;;;;;;;;;;5116598;27;20238;-76
2021/04/24 02:10:28;;;;;;;16.13;9.85;;;;;;;;;;5124023;27;20256;-76
2021/04/24 02:12:55;;;;;;;17.20;9.30;;;;;;;;;;5123354;27;20189;-76
2021/04/24 02:15:21;;;;;;;19.45;10.95;;;;;;;;;;5127330;27;20231;-76
2021/04/24 02:17:47;;;;;;;13.85;8.95;;;;;;;;;;5116984;27;20239;-76
2021/04/24 02:20:14;;;;;;;15.07;8.48;;;;;;;;;;5135672;27;20591;-74
2021/04/24 02:22:41;;;;;;;16.17;9.52;;;;;;;;;;5121391;27;20208;-74
2021/04/24 02:25:08;;;;;;;16.77;9.00;;;;;;;;;;5124209;27;20165;-75
2021/04/24 02:27:34;;;;;;;14.95;8.65;;;;;;;;;;5122852;27;20209;-75
2021/04/24 02:30:00;;;;;;;16.92;9.13;;;;;;;;;;5124091;27;20247;-76
2021/04/24 02:32:28;;;;;;;15.93;8.75;;;;;;;;;;5124822;27;20182;-75
2021/04/24 02:34:54;;;;;;;15.63;9.20;;;;;;;;;;5114348;28;20182;-75
2021/04/24 02:37:20;;;;;;;16.20;9.32;;;;;;;;;;5114444;28;20198;-77
2021/04/24 02:39:48;;;;;;;15.82;9.02;;;;;;;;;;5114260;28;20251;-75
2021/04/24 02:42:16;;;;;;;16.90;8.85;;;;;;;;;;5122849;27;20227;-75
2021/04/24 02:44:43;;;;;;;15.90;9.07;;;;;;;;;;5113864;28;20178;-76
2021/04/24 02:47:09;;;;;;;15.68;8.70;;;;;;;;;;5127136;27;20705;-75
2021/04/24 02:49:35;;;;;;;14.23;9.63;;;;;;;;;;5121075;27;20178;-78
2021/04/24 02:52:01;;;;;;;16.50;10.00;;;;;;;;;;5134874;27;20178;-75
2021/04/24 02:54:27;;;;;;;15.75;9.10;;;;;;;;;;5115198;27;20399;-77
2021/04/24 02:56:53;;;;;;;24.35;9.88;;;;;;;;;;5118341;27;20556;-76
2021/04/24 02:59:19;;;;;;;17.23;9.27;;;;;;;;;;5113927;28;20303;-75
2021/04/24 03:01:46;;;;;;;15.55;9.95;;;;;;;;;;5114277;28;20251;-75
2021/04/24 03:04:12;;;;;;;20.55;10.73;;;;;;;;;;5126612;27;20171;-75
2021/04/24 03:06:38;;;;;;;16.08;8.77;;;;;;;;;;5114316;28;20210;-75
2021/04/24 03:09:04;;;;;;;16.63;8.50;;;;;;;;;;5117360;27;20282;-76
2021/04/24 03:11:32;;;;;;;15.07;7.90;;;;;;;;;;5115742;27;20814;-77
2021/04/24 03:13:59;;;;;;;15.40;8.70;;;;;;;;;;5117034;27;20171;-75
2021/04/24 03:16:25;;;;;;;15.52;8.40;;;;;;;;;;5119791;27;20175;-76
2021/04/24 03:18:54;;;;;;;20.23;9.00;;;;;;;;;;5122327;27;20178;-76
2021/04/24 03:21:24;;;;;;;14.98;8.65;;;;;;;;;;5123906;27;20175;-76
2021/04/24 03:23:50;;;;;;;14.50;9.23;;;;;;;;;;5116854;27;20619;-75
2021/04/24 03:26:16;;;;;;;15.23;8.50;;;;;;;;;;5114143;27;20188;-77
2021/04/24 03:28:42;;;;;;;17.95;8.90;;;;;;;;;;5123771;27;20249;-76
2021/04/24 03:31:08;;;;;;;16.53;8.10;;;;;;;;;;5115990;27;20202;-76
2021/04/24 03:33:34;;;;;;;19.92;9.20;;;;;;;;;;5113589;27;20402;-76
2021/04/24 03:36:00;;;;;;;15.77;8.02;;;;;;;;;;5129619;27;20623;-76
2021/04/24 03:38:26;;;;;;;19.90;8.63;;;;;;;;;;5117521;27;20198;-76
2021/04/24 03:40:52;;;;;;;18.95;9.40;;;;;;;;;;5127419;27;20278;-77
2021/04/24 03:43:18;;;;;;;17.33;8.98;;;;;;;;;;5116812;27;20242;-77
2021/04/24 03:45:45;;;;;;;13.88;7.78;;;;;;;;;;5115291;27;20202;-75
2021/04/24 03:48:11;;;;;;;14.80;8.02;;;;;;;;;;5112984;28;20197;-76
2021/04/24 03:50:37;;;;;;;15.93;8.60;;;;;;;;;;5122470;27;20182;-79
2021/04/24 03:53:03;;;;;;;14.95;7.97;;;;;;;;;;5130834;28;20413;-76
2021/04/24 03:55:29;;;;;;;12.45;7.93;;;;;;;;;;5113375;28;20174;-76
2021/04/24 03:57:55;;;;;;;16.53;8.10;;;;;;;;;;5113376;28;20194;-76
2021/04/24 04:00:22;;;;;;;14.05;7.32;;;;;;;;;;5120984;28;20485;-77
2021/04/24 04:02:48;;;;;;;11.52;7.65;;;;;;;;;;5116273;28;20442;-76
2021/04/24 04:05:14;;;;;;;11.03;6.90;;;;;;;;;;5119191;28;20227;-76
2021/04/24 04:07:41;;;;;;;16.77;7.03;;;;;;;;;;5128659;28;20484;-76
2021/04/24 04:10:07;;;;;;;11.10;7.00;;;;;;;;;;5120579;28;20178;-77
2021/04/24 04:12:33;;;;;;;12.90;6.90;;;;;;;;;;5127108;28;20178;-77
2021/04/24 04:14:59;;;;;;;14.63;7.50;;;;;;;;;;5112904;28;20214;-77
2021/04/24 04:17:25;;;;;;;11.70;6.40;;;;;;;;;;5126657;28;20587;-77
2021/04/24 04:19:51;;;;;;;16.47;7.40;;;;;;;;;;5112957;28;20206;-77
2021/04/24 04:22:17;;;;;;;13.33;6.83;;;;;;;;;;5128908;28;20393;-77
2021/04/24 04:24:43;;;;;;;11.60;6.47;;;;;;;;;;5131123;28;20411;-77
2021/04/24 04:27:09;;;;;;;11.47;6.97;;;;;;;;;;5133152;27;20187;-77
2021/04/24 04:29:35;;;;;;;10.50;6.07;;;;;;;;;;5116638;28;20431;-77
2021/04/24 04:32:01;;;;;;;12.60;6.83;;;;;;;;;;5133864;27;20402;-77
2021/04/24 04:34:27;;;;;;;14.93;7.07;;;;;;;;;;5127368;27;20430;-76
2021/04/24 04:36:53;;;;;;;12.73;6.15;;;;;;;;;;5116702;28;20793;-77
2021/04/24 04:39:19;;;;;;;13.93;6.57;;;;;;;;;;5118537;27;20194;-76
2021/04/24 04:41:45;;;;;;;12.13;6.57;;;;;;;;;;5120284;27;20415;-76
2021/04/24 04:44:10;;;;;;;14.27;7.03;;;;;;;;;;5126772;27;20433;-76
2021/04/24 04:46:36;;;;;;;10.43;6.53;;;;;;;;;;5116385;28;20395;-76
2021/04/24 04:49:03;;;;;;;13.90;7.13;;;;;;;;;;5119869;27;20501;-76
2021/04/24 04:51:28;;;;;;;10.93;5.75;;;;;;;;;;5118298;27;20387;-76
2021/04/24 04:53:54;;;;;;;15.33;6.47;;;;;;;;;;5131848;27;20523;-76
2021/04/24 04:56:20;;;;;;;11.43;6.23;;;;;;;;;;5114888;28;20492;-77
2021/04/24 04:58:46;;;;;;;13.10;5.60;;;;;;;;;;5125567;27;20464;-76
2021/04/24 05:01:12;;;;;;;11.63;6.27;;;;;;;;;;5120284;27;20446;-76
2021/04/24 05:03:39;;;;;;;13.30;7.15;;;;;;;;;;5115903;28;20747;-75
2021/04/24 05:06:05;;;;;;;11.75;5.65;;;;;;;;;;5118083;27;20186;-76
2021/04/24 05:08:34;;;;;;;12.52;6.30;;;;;;;;;;5133686;27;20222;-76
2021/04/24 05:11:00;;;;;;;9.70;5.22;;;;;;;;;;5129439;27;20205;-76
2021/04/24 05:13:26;;;;;;;11.50;6.00;;;;;;;;;;5125246;27;20586;-78
2021/04/24 05:15:52;;;;;;;8.33;5.07;;;;;;;;;;5120358;27;20535;-76
2021/04/24 05:18:20;;;;;;;8.23;5.22;;;;;;;;;;5116880;27;20458;-77
2021/04/24 05:20:46;;;;;;;14.75;6.00;;;;;;;;;;5125362;27;20206;-76
2021/04/24 05:23:12;;;;;;;11.87;5.70;;;;;;;;;;5125464;27;20177;-76
2021/04/24 05:25:38;;;;;;;10.37;5.87;;;;;;;;;;5117067;27;20469;-76
2021/04/24 05:28:04;;;;;;;12.75;5.65;;;;;;;;;;5114647;28;20440;-77
2021/04/24 05:30:30;;;;;;;16.73;5.75;;;;;;;;;;5121636;27;20578;-76
2021/04/24 05:32:57;;;;;;;11.93;5.33;;;;;;;;;;5123475;27;20262;-76
2021/04/24 05:35:23;;;;;;;10.57;5.45;;;;;;;;;;5116105;28;20410;-76
2021/04/24 05:37:49;;;;;;;10.27;5.53;;;;;;;;;;5117014;27;20289;-76
2021/04/24 05:40:15;;;;;;;10.97;5.53;;;;;;;;;;5121762;27;20288;-76
2021/04/24 05:42:42;;;;;;;10.80;6.15;;;;;;;;;;5125738;27;20388;-76
2021/04/24 05:45:12;;;;;;;10.40;5.40;;;;;;;;;;5117549;27;20551;-76
2021/04/24 05:47:58;;;;;;;12.00;5.20;;;;;;;;;;5128937;27;20242;-76
2021/04/24 05:50:25;;;;;;;12.52;5.40;;;;;;;;;;5118456;27;20189;-76
2021/04/24 05:52:51;;;;;;;8.23;5.18;;;;;;;;;;5131964;27;20188;-76
2021/04/24 05:55:17;;;;;;;7.65;4.60;;;;;;;;;;5119397;27;20209;-75
2021/04/24 05:57:43;;;;;;;8.57;5.05;;;;;;;;;;5113899;28;20217;-76
2021/04/24 06:00:18;;;;;;;12.38;5.28;;;;;;;;;;5116998;27;20202;-76
2021/04/24 06:02:44;;;;;;;14.60;6.25;;;;;;;;;;5132997;27;20203;-77
2021/04/24 06:05:10;;;;;;;11.00;4.40;;;;;;;;;;5121749;27;20175;-76
2021/04/24 06:07:37;;;;;;;11.45;4.70;;;;;;;;;;5129284;27;20203;-77
2021/04/24 06:10:04;;;;;;;10.52;5.10;;;;;;;;;;5114945;28;20197;-77
2021/04/24 06:12:30;;;;;;;10.98;5.20;;;;;;;;;;5133284;27;20630;-76
2021/04/24 06:14:56;;;;;;;7.95;4.45;;;;;;;;;;5132591;27;20339;-77
2021/04/24 06:17:22;;;;;;;12.15;4.63;;;;;;;;;;5116256;27;20269;-77
2021/04/24 06:19:48;;;;;;;9.20;4.60;;;;;;;;;;5114745;28;20288;-77
2021/04/24 06:22:14;;;;;;;7.70;4.87;;;;;;;;;;5119881;27;20624;-77
2021/04/24 06:24:40;;;;;;;12.05;5.60;;;;;;;;;;5114383;28;20499;-77
2021/04/24 06:27:06;;;;;;;10.73;5.15;;;;;;;;;;5116834;27;20622;-75
2021/04/24 06:29:32;;;;;;;11.80;4.78;;;;;;;;;;5115295;27;20214;-75
2021/04/24 06:31:58;;;;;;;11.90;5.27;;;;;;;;;;5130237;27;20206;-77
2021/04/24 06:34:24;;;;;;;16.93;5.30;;;;;;;;;;5115286;27;20409;-76
2021/04/24 06:36:50;;;;;;;15.95;5.32;;;;;;;;;;5114386;28;20500;-77
2021/04/24 06:39:16;;;;;;;10.40;4.60;;;;;;;;;;5123505;27;20204;-77
2021/04/24 06:41:42;;;;;;;11.38;4.63;;;;;;;;;;5120640;27;20173;-76
2021/04/24 06:44:08;;;;;;;7.35;3.75;;;;;;;;;;5123762;27;20174;-76
2021/04/24 06:46:34;;;;;;;10.88;4.25;;;;;;;;;;5120222;27;20524;-76
2021/04/24 06:49:00;;;;;;;15.30;5.07;;;;;;;;;;5134839;27;20257;-76
2021/04/24 06:51:26;;;;;;;11.07;4.13;;;;;;;;;;5117475;27;20759;-76
2021/04/24 06:53:53;;;;;;;12.70;4.22;;;;;;;;;;5116512;27;20773;-74
2021/04/24 06:56:19;;;;;;;11.23;4.43;;;;;;;;;;5110332;27;20262;-76
2021/04/24 06:58:45;;;;;;;14.07;6.95;;;;;;;;;;5108555;28;20210;-76
2021/04/24 07:01:11;;;;;;;10.40;3.97;;;;;;;;;;5118584;27;20229;-76
2021/04/24 07:03:37;;;;;;;14.00;4.30;;;;;;;;;;5115997;27;20416;-76
2021/04/24 07:06:04;;;;;;;9.60;5.30;;;;;;;;;;5112858;27;20190;-76
2021/04/24 07:08:30;;;;;;;12.38;4.10;;;;;;;;;;5127852;27;20619;-77
2021/04/24 07:10:56;;;;;;;11.25;4.88;;;;;;;;;;5126526;27;20205;-76
2021/04/24 07:13:22;;;;;;;9.52;4.35;;;;;;;;;;5125174;27;20178;-76
2021/04/24 07:15:48;;;;;;;12.68;4.70;;;;;;;;;;5111716;27;20272;-76
2021/04/24 07:18:14;;;;;;;13.77;4.30;;;;;;;;;;5130635;27;20348;-76
2021/04/24 07:20:40;;;;;;;7.15;3.42;;;;;;;;;;5108663;28;20628;-76
2021/04/24 07:23:06;;;;;;;7.88;3.95;;;;;;;;;;5108582;28;20185;-76
2021/04/24 07:25:32;;;;;;;10.18;3.97;;;;;;;;;;5113033;27;20531;-75
2021/04/24 07:27:58;;;;;;;10.80;4.18;;;;;;;;;;5121560;27;20643;-76
2021/04/24 07:30:24;;;;;;;7.40;3.80;;;;;;;;;;5110023;28;20232;-77
2021/04/24 07:32:50;;;;;;;7.68;3.30;;;;;;;;;;5110115;28;20478;-76
2021/04/24 07:35:16;;;;;;;11.50;4.17;;;;;;;;;;5109790;28;20307;-77
2021/04/24 07:37:43;;;;;;;10.70;3.17;;;;;;;;;;5118135;27;20418;-77
2021/04/24 07:40:09;;;;;;;12.23;3.80;;;;;;;;;;5116803;27;20206;-76
2021/04/24 07:42:35;;;;;;;8.30;4.28;;;;;;;;;;5119755;27;20216;-76
2021/04/24 07:45:01;;;;;;;6.55;3.80;;;;;;;;;;5113428;27;20177;-77
2021/04/24 07:47:27;;;;;;;9.13;3.80;;;;;;;;;;5119866;27;20543;-77
2021/04/24 07:49:53;;;;;;;18.10;9.55;;;;;;;;;;5121957;27;20489;-76
2021/04/24 07:52:20;;;;;;;10.73;3.87;;;;;;;;;;5130391;27;20661;-78
2021/04/24 07:54:46;;;;;;;7.93;3.58;;;;;;;;;;5121181;28;20926;-77
2021/04/24 07:57:13;;;;;;;10.85;6.57;;;;;;;;;;5120499;28;20301;-76
2021/04/24 07:59:39;;;;;;;10.88;6.93;;;;;;;;;;5123228;28;20202;-78
2021/04/24 08:02:08;;;;;;;10.07;4.15;;;;;;;;;;5123778;27;20185;-77
2021/04/24 08:04:34;;;;;;;10.13;4.20;;;;;;;;;;5127967;27;20201;-78
2021/04/24 08:07:01;;;;;;;7.57;3.93;;;;;;;;;;5134203;27;20264;-76
2021/04/24 08:09:27;;;;;;;9.73;3.63;;;;;;;;;;5130052;27;20424;-77
2021/04/24 08:11:53;;;;;;;8.57;3.70;;;;;;;;;;5113920;28;20178;-77
2021/04/24 08:14:20;;;;;;;8.32;3.83;;;;;;;;;;5127239;27;20432;-76
2021/04/24 08:16:46;;;;;;;5.30;3.10;;;;;;;;;;5120097;27;20202;-77
2021/04/24 08:19:12;;;;;;;8.13;4.30;;;;;;;;;;5114029;27;20182;-77
2021/04/24 08:21:40;;;;;;;9.63;3.90;;;;;;;;;;5123708;27;21173;-77
2021/04/24 08:24:06;;;;;;;6.07;3.58;;;;;;;;;;5116585;27;20449;-77
2021/04/24 08:26:32;;;;;;;8.85;5.60;;;;;;;;;;5113695;28;20902;-77
2021/04/24 08:28:58;;;;;;;14.68;6.43;;;;;;;;;;5114298;27;20266;-76
2021/04/24 08:31:25;;;;;;;10.48;5.22;;;;;;;;;;5123886;27;20185;-76
2021/04/24 08:33:51;;;;;;;5.75;3.45;;;;;;;;;;5115636;27;20202;-76
2021/04/24 08:36:17;;;;;;;5.78;3.80;;;;;;;;;;5125019;27;20182;-76
2021/04/24 08:38:44;;;;;;;6.05;3.45;;;;;;;;;;5133895;27;20842;-76
2021/04/24 08:41:10;;;;;;;16.13;5.95;;;;;;;;;;5125705;27;20207;-75
2021/04/24 08:43:40;;;;;;;7.17;4.37;;;;;;;;;;5117995;27;20189;-76
2021/04/24 08:46:06;;;;;;;6.47;3.15;;;;;;;;;;5119715;27;20469;-75
2021/04/24 08:48:33;;;;;;;10.13;4.10;;;;;;;;;;5130755;27;20250;-76
2021/04/24 08:50:59;;;;;;;9.98;4.43;;;;;;;;;;5112832;27;20183;-75
2021/04/24 08:53:25;;;;;;;9.02;3.92;;;;;;;;;;5127857;27;20201;-76
2021/04/24 08:55:51;;;;;;;10.15;4.22;;;;;;;;;;5132166;27;20220;-76
2021/04/24 08:58:17;;;;;;;8.20;4.00;;;;;;;;;;5123344;27;20199;-76
2021/04/24 09:00:44;;;;;;;8.82;2.80;;;;;;;;;;5127720;27;20230;-76
2021/04/24 09:03:11;;;;;;;13.13;9.80;;;;;;;;;;5112787;27;20186;-76
2021/04/24 09:05:38;;;;;;;8.63;4.78;;;;;;;;;;5120137;27;20213;-76
2021/04/24 09:08:05;;;;;;;5.28;3.20;;;;;;;;;;5112178;28;20199;-76
2021/04/24 09:10:44;;;;;;;7.45;3.35;;;;;;;;;;5109473;28;20493;-75
2021/04/24 09:13:11;;;;;;;7.30;2.80;;;;;;;;;;5107187;27;20185;-76
2021/04/24 09:15:37;;;;;;;5.20;3.67;;;;;;;;;;5116749;27;20586;-76
2021/04/24 09:18:07;;;;;;;6.35;3.80;;;;;;;;;;5120475;27;20574;-76
2021/04/24 09:20:52;;;;;;;5.65;3.13;;;;;;;;;;5114666;27;20727;-75
2021/04/24 09:23:20;;;;;;;5.80;3.78;;;;;;;;;;5121712;27;20253;-75
2021/04/24 09:25:47;;;;;;;9.52;3.53;;;;;;;;;;5117113;27;20177;-76
2021/04/24 09:28:24;;;;;;;5.70;3.25;;;;;;;;;;5121061;27;20190;-76
2021/04/24 09:30:50;;;;;;;7.03;3.15;;;;;;;;;;5112778;27;20227;-77
2021/04/24 09:33:16;;;;;;;7.28;3.42;;;;;;;;;;5112018;28;20257;-76
2021/04/24 09:35:51;;;;;;;6.07;2.92;;;;;;;;;;5118673;27;20186;-76
2021/04/24 09:38:28;;;;;;;6.10;3.20;;;;;;;;;;5132567;27;20200;-76
2021/04/24 09:41:01;;;;;;;9.15;3.30;;;;;;;;;;5110525;27;20686;-77
2021/04/24 09:43:27;;;;;;;4.93;3.00;;;;;;;;;;5129235;27;20182;-77
2021/04/24 09:45:53;;;;;;;4.22;2.72;;;;;;;;;;5112760;27;20539;-77
2021/04/24 09:48:23;;;;;;;3.58;2.80;;;;;;;;;;5114885;27;20591;-77
2021/04/24 09:50:50;;;;;;;6.10;2.90;;;;;;;;;;5130188;27;20183;-77
2021/04/24 09:53:23;;;;;;;6.50;5.10;;;;;;;;;;5114671;27;20431;-76
2021/04/24 09:55:58;;;;;;;5.00;2.60;;;;;;;;;;5123856;27;20446;-77
2021/04/24 09:58:30;;;;;;;5.53;3.70;;;;;;;;;;5120082;27;20441;-77
2021/04/24 10:00:59;;;;;;;9.03;8.23;;;;;;;;;;5132148;27;20816;-77
2021/04/24 10:03:35;;;;;;;5.63;2.90;;;;;;;;;;5114539;27;20420;-77
2021/04/24 10:06:19;;;;;;;6.90;5.60;;;;;;;;;;5127418;27;20427;-78
2021/04/24 10:08:45;;;;;;;3.20;2.50;;;;;;;;;;5118476;27;20776;-76
2021/04/24 10:11:25;;;;;;;5.37;2.90;;;;;;;;;;5131946;27;20403;-76
2021/04/24 10:13:51;;;;;;;5.70;2.70;;;;;;;;;;5125292;27;20431;-77
2021/04/24 10:16:35;;;;;;;6.77;3.50;;;;;;;;;;5118437;27;20418;-77
2021/04/24 10:19:02;;;;;;;4.57;3.20;;;;;;;;;;5113776;27;20431;-78
2021/04/24 10:21:30;;;;;;;4.23;3.23;;;;;;;;;;5131915;27;20463;-77
2021/04/24 10:23:56;;;;;;;4.43;2.77;;;;;;;;;;5114269;27;20809;-77
2021/04/24 10:26:22;;;;;;;4.80;2.80;;;;;;;;;;5119934;27;20507;-77
2021/04/24 10:28:48;;;;;;;5.23;2.57;;;;;;;;;;5111794;27;20516;-77
2021/04/24 10:31:14;;;;;;;4.37;2.33;;;;;;;;;;5121724;27;20873;-77
2021/04/24 10:33:41;;;;;;;4.07;2.70;;;;;;;;;;5114401;27;20513;-79
2021/04/24 10:36:08;;;;;;;4.07;2.60;;;;;;;;;;5121255;27;20426;-77
2021/04/24 10:38:34;;;;;;;3.73;2.50;;;;;;;;;;5116219;27;21049;-77
2021/04/24 10:41:00;;;;;;;6.33;2.60;;;;;;;;;;5121005;27;20469;-77
2021/04/24 10:43:26;;;;;;;3.77;2.60;;;;;;;;;;5117849;27;20507;-77
2021/04/24 10:45:52;;;;;;;5.27;3.00;;;;;;;;;;5111462;28;21000;-78
2021/04/24 10:48:26;;;;;;;6.80;3.37;;;;;;;;;;5119301;27;20876;-77
2021/04/24 10:50:52;;;;;;;4.87;3.47;;;;;;;;;;5117841;27;20488;-77
2021/04/24 10:53:18;;;;;;;4.20;3.30;;;;;;;;;;5112214;27;20507;-77
2021/04/24 10:55:45;;;;;;;3.73;2.93;;;;;;;;;;5110754;28;20464;-77
2021/04/24 10:58:15;;;;;;;4.90;3.20;;;;;;;;;;5113983;27;20447;-76
2021/04/24 11:00:41;;;;;;;30.67;27.70;;;;;;;;;;5124101;27;20467;-75
2021/04/24 11:03:07;;;;;;;9.03;8.13;;;;;;;;;;5114981;27;20423;-76
2021/04/24 11:05:35;;;;;;;8.10;6.83;;;;;;;;;;5125798;27;20543;-76
2021/04/24 11:08:10;;;;;;;8.23;3.93;;;;;;;;;;5110208;28;20433;-77
2021/04/24 11:10:48;;;;;;;7.73;2.53;;;;;;;;;;5109996;28;20523;-77
2021/04/24 11:13:16;;;;;;;5.83;3.40;;;;;;;;;;5105560;27;20752;-76
2021/04/24 11:15:43;;;;;;;4.87;3.70;;;;;;;;;;5115602;27;20535;-76
2021/04/24 11:18:11;;;;;;;11.30;7.63;;;;;;;;;;5118060;27;20555;-77
2021/04/24 11:20:46;;;;;;;4.57;3.50;;;;;;;;;;5126414;27;20513;-75
2021/04/24 11:23:31;;;;;;;5.90;3.17;;;;;;;;;;5119863;27;20476;-76
2021/04/24 11:26:00;;;;;;;5.47;3.00;;;;;;;;;;5124364;27;20426;-76
2021/04/24 11:28:27;;;;;;;4.60;2.80;;;;;;;;;;5109789;28;20432;-76
2021/04/24 11:30:57;;;;;;;5.03;3.40;;;;;;;;;;5110713;28;20785;-76
2021/04/24 11:33:37;;;;;;;4.60;3.03;;;;;;;;;;5109999;27;20424;-76
2021/04/24 11:36:27;;;;;;;4.07;2.83;;;;;;;;;;5124265;27;20420;-76
2021/04/24 11:39:05;;;;;;;4.60;3.63;;;;;;;;;;5115672;27;20415;-76
2021/04/24 11:41:32;;;;;;;5.00;2.93;;;;;;;;;;5120832;27;21338;-76
2021/04/24 11:43:58;;;;;;;6.80;3.30;;;;;;;;;;5117434;27;20415;-77
2021/04/24 11:46:33;;;;;;;3.80;2.87;;;;;;;;;;5113664;28;20428;-77
2021/04/24 11:49:01;;;;;;;3.53;3.17;;;;;;;;;;5130115;27;20916;-77
2021/04/24 11:51:40;;;;;;;10.97;10.03;;;;;;;;;;5119410;27;20446;-76
2021/04/24 11:54:10;;;;;;;4.93;3.50;;;;;;;;;;5120338;28;20407;-75
2021/04/24 11:56:37;;;;;;;4.70;3.33;;;;;;;;;;5120185;27;21245;-77
2021/04/24 11:59:04;;;;;;;4.00;3.33;;;;;;;;;;5120907;28;20408;-76
2021/04/24 12:01:30;;;;;;;4.23;2.90;;;;;;;;;;5122954;28;20824;-76
2021/04/24 12:03:56;;;;;;;3.67;3.20;;;;;;;;;;5121098;28;20487;-76
2021/04/24 12:06:39;;;;;;;3.00;2.73;;;;;;;;;;5124866;28;20448;-77
2021/04/24 12:09:06;;;;;;;6.20;3.13;;;;;;;;;;5109868;28;20901;-76
2021/04/24 12:11:33;;;;;;;3.43;2.80;;;;;;;;;;5112044;28;20470;-77
2021/04/24 12:13:59;;;;;;;4.20;2.70;;;;;;;;;;5123425;28;20411;-77
2021/04/24 12:16:38;;;;;;;6.00;5.40;;;;;;;;;;5109443;28;20431;-77
2021/04/24 12:19:22;;;;;;;6.33;3.50;;;;;;;;;;5125331;28;20415;-75
2021/04/24 12:21:59;;;;;;;5.13;4.17;;;;;;;;;;5122401;28;20450;-76
2021/04/24 12:24:25;;;;;;;3.97;3.13;;;;;;;;;;5129823;28;20403;-76
2021/04/24 12:26:51;;;;;;;3.73;3.30;;;;;;;;;;5110778;28;20483;-77
2021/04/24 12:29:37;;;;;;;7.53;6.83;;;;;;;;;;5109234;28;20438;-77
2021/04/24 12:32:11;;;;;;;3.53;2.83;;;;;;;;;;5109089;28;20431;-77
2021/04/24 12:34:37;;;;;;;4.80;2.83;;;;;;;;;;5116002;28;20523;-76
2021/04/24 12:37:03;;;;;;;3.83;3.20;;;;;;;;;;5127229;28;21137;-76
2021/04/24 12:39:29;;;;;;;3.93;2.97;;;;;;;;;;5129752;28;20453;-76
2021/04/24 12:41:55;;;;;;;9.07;8.33;;;;;;;;;;5116006;28;20484;-76
2021/04/24 12:44:27;;;;;;;3.70;2.67;;;;;;;;;;5107654;28;20410;-76
2021/04/24 12:46:53;;;;;;;3.57;3.27;;;;;;;;;;5114009;27;20818;-77
2021/04/24 12:49:19;;;;;;;5.20;4.23;;;;;;;;;;5120112;27;20428;-75
2021/04/24 12:52:02;;;;;;;3.00;2.70;;;;;;;;;;5118566;27;20407;-76
2021/04/24 12:54:28;;;;;;;3.97;3.10;;;;;;;;;;5128554;27;20491;-77
2021/04/24 12:57:21;;;;;;;4.03;3.07;;;;;;;;;;5121385;27;20454;-77
2021/04/24 12:59:57;;;;;;;6.00;3.60;;;;;;;;;;5131210;27;20470;-76
2021/04/24 13:02:33;;;;;;;6.63;4.83;;;;;;;;;;5112709;27;20477;-76
2021/04/24 13:05:00;;;;;;;5.60;4.07;;;;;;;;;;5120366;27;20429;-76
2021/04/24 13:07:28;;;;;;;4.30;3.87;;;;;;;;;;5111804;27;20816;-76
2021/04/24 13:09:54;;;;;;;5.03;4.23;;;;;;;;;;5114942;27;20428;-76
2021/04/24 13:12:20;;;;;;;7.40;5.33;;;;;;;;;;5118889;27;20428;-78
2021/04/24 13:14:47;;;;;;;9.00;6.53;;;;;;;;;;5115567;27;20428;-76
2021/04/24 13:17:16;;;;;;;3.20;2.90;;;;;;;;;;5113566;27;20447;-76
2021/04/24 13:19:46;;;;;;;4.13;2.90;;;;;;;;;;5118026;27;20467;-77
2021/04/24 13:22:12;;;;;;;2.90;2.47;;;;;;;;;;5127821;27;20418;-75
2021/04/24 13:24:44;;;;;;;3.27;2.97;;;;;;;;;;5112323;27;20415;-76
2021/04/24 13:27:10;;;;;;;3.03;2.70;;;;;;;;;;5127604;27;20497;-76
2021/04/24 13:29:40;;;;;;;4.67;4.13;;;;;;;;;;5110644;28;20428;-76
2021/04/24 13:32:06;;;;;;;2.73;2.43;;;;;;;;;;5126574;27;20420;-75
2021/04/24 13:34:33;;;;;;;3.33;2.80;;;;;;;;;;5119277;27;20855;-74
2021/04/24 13:37:04;;;;;;;3.23;2.40;;;;;;;;;;5112085;28;20960;-74
2021/04/24 13:39:31;;;;;;;3.43;3.13;;;;;;;;;;5111771;28;20436;-81
2021/04/24 13:42:07;;;;;;;2.97;2.50;;;;;;;;;;5125049;27;20463;-78
2021/04/24 13:44:34;;;;;;;3.70;2.40;;;;;;;;;;5099511;28;20415;-81
2021/04/24 13:47:00;;;;;;;3.43;2.33;;;;;;;;;;5112077;28;20432;-79
2021/04/24 13:49:26;;;;;;;2.70;2.33;;;;;;;;;;5110453;27;21010;-80
2021/04/24 13:51:53;;;;;;;4.80;2.30;;;;;;;;;;5111491;28;20508;-79
2021/04/24 13:54:20;;;;;;;3.30;2.17;;;;;;;;;;5119787;27;21172;-81
2021/04/24 13:56:47;;;;;;;2.50;2.30;;;;;;;;;;5129217;27;20492;-81
2021/04/24 13:59:13;;;;;;;3.73;2.87;;;;;;;;;;5110209;27;20427;-81
2021/04/24 14:01:41;;;;;;;3.30;2.30;;;;;;;;;;5126824;27;20458;-82
2021/04/24 14:04:07;;;;;;;3.83;2.30;;;;;;;;;;5112080;28;20849;-80
2021/04/24 14:06:33;;;;;;;3.03;2.50;;;;;;;;;;5131115;27;20842;-81
2021/04/24 14:08:59;;;;;;;3.70;3.40;;;;;;;;;;5111918;27;20435;-83
2021/04/24 14:11:25;;;;;;;3.67;3.27;;;;;;;;;;5126732;27;20859;-79
2021/04/24 14:13:51;;;;;;;2.97;2.50;;;;;;;;;;5114747;27;20827;-81
2021/04/24 14:16:17;;;;;;;5.20;3.53;;;;;;;;;;5111263;28;20422;-80
2021/04/24 14:18:43;;;;;;;3.00;2.70;;;;;;;;;;5111394;28;20450;-82
2021/04/24 14:21:09;;;;;;;3.10;2.50;;;;;;;;;;5110840;28;20466;-81
2021/04/24 14:23:35;;;;;;;3.10;2.70;;;;;;;;;;5111284;28;20427;-82
2021/04/24 14:26:02;;;;;;;2.93;2.23;;;;;;;;;;5129431;27;20616;-78
2021/04/24 14:28:28;;;;;;;2.80;2.17;;;;;;;;;;5111823;28;20472;-79
2021/04/24 14:30:54;;;;;;;3.90;2.43;;;;;;;;;;5121023;27;20420;-81
2021/04/24 14:33:21;;;;;;;3.93;3.07;;;;;;;;;;5111000;28;20434;-83
2021/04/24 14:35:47;;;;;;;3.00;2.43;;;;;;;;;;5113610;27;20444;-80
2021/04/24 14:38:13;;;;;;;3.23;2.73;;;;;;;;;;5112245;27;20850;-78